Archiv

Tageswerte

Alle gespeicherten Messwerte deiner Wetterstation.

Ausgewählter Tag10.01.2024
← Vortag Nächster Tag → Heute
Messpunkte288
Max Temperatur0,5 °C
Min Temperatur-13,6 °C
Ø Temperatur-7,5 °C
Regen0,0 mm
Stärkste Böe9,3 km/h

Messwerte vom 10.01.2024

288 gespeicherte Messwerte

Diagramm anzeigen
ZeitTemperaturFeuchteDruckWindBöeRichtungRegenUVHelligkeit
23:59-7,7 °C82 %1.021,0 hPa0,2 km/h2,1 km/h202°0,0 mm
23:54-7,8 °C82 %1.021,0 hPa0,0 km/h0,0 km/h202°0,0 mm
23:49-8,0 °C82 %1.021,0 hPa0,1 km/h2,1 km/h202°0,0 mm
23:44-8,1 °C83 %1.021,0 hPa0,0 km/h0,0 km/h202°0,0 mm
23:39-8,1 °C83 %1.021,0 hPa0,0 km/h0,0 km/h202°0,0 mm
23:34-8,2 °C84 %1.021,0 hPa0,0 km/h0,0 km/h202°0,0 mm
23:29-8,4 °C84 %1.021,0 hPa0,0 km/h0,0 km/h202°0,0 mm
23:24-8,5 °C84 %1.021,0 hPa0,0 km/h0,0 km/h202°0,0 mm
23:19-8,5 °C85 %1.021,0 hPa0,0 km/h0,0 km/h202°0,0 mm
23:14-8,5 °C84 %1.021,0 hPa0,0 km/h0,0 km/h202°0,0 mm
23:09-8,3 °C84 %1.021,0 hPa0,0 km/h0,0 km/h202°0,0 mm
23:04-8,2 °C83 %1.021,0 hPa0,0 km/h0,0 km/h202°0,0 mm
22:59-8,1 °C83 %1.021,0 hPa0,0 km/h0,0 km/h202°0,0 mm
22:54-8,2 °C83 %1.021,0 hPa0,0 km/h0,0 km/h202°0,0 mm
22:49-8,2 °C83 %1.021,0 hPa0,2 km/h2,1 km/h202°0,0 mm
22:44-8,1 °C84 %1.021,0 hPa0,0 km/h0,0 km/h202°0,0 mm
22:39-8,0 °C83 %1.021,0 hPa0,0 km/h0,0 km/h202°0,0 mm
22:34-8,0 °C83 %1.021,0 hPa0,0 km/h0,0 km/h202°0,0 mm
22:29-8,0 °C83 %1.021,0 hPa0,0 km/h0,0 km/h202°0,0 mm
22:24-7,9 °C83 %1.021,0 hPa0,0 km/h0,0 km/h202°0,0 mm
22:19-7,9 °C83 %1.021,0 hPa0,0 km/h0,0 km/h202°0,0 mm
22:14-7,8 °C83 %1.021,0 hPa0,0 km/h0,0 km/h202°0,0 mm
22:09-7,7 °C82 %1.021,0 hPa0,0 km/h0,0 km/h202°0,0 mm
22:04-7,6 °C82 %1.021,0 hPa0,0 km/h0,0 km/h202°0,0 mm
21:59-7,2 °C81 %1.021,0 hPa0,0 km/h0,0 km/h202°0,0 mm
21:54-6,9 °C79 %1.021,0 hPa0,0 km/h0,0 km/h202°0,0 mm
21:49-6,9 °C78 %1.021,0 hPa0,0 km/h0,0 km/h202°0,0 mm
21:44-7,0 °C80 %1.021,0 hPa1,3 km/h2,7 km/h202°0,0 mm
21:39-7,0 °C79 %1.021,0 hPa0,8 km/h2,7 km/h202°0,0 mm
21:34-7,0 °C80 %1.021,0 hPa2,1 km/h2,7 km/h202°0,0 mm
21:29-7,0 °C80 %1.021,0 hPa0,2 km/h2,1 km/h202°0,0 mm
21:24-7,0 °C80 %1.021,0 hPa1,4 km/h2,7 km/h178°0,0 mm
21:19-6,9 °C80 %1.021,0 hPa0,0 km/h0,0 km/h158°0,0 mm
21:14-6,8 °C80 %1.020,0 hPa0,0 km/h0,0 km/h158°0,0 mm
21:09-6,8 °C79 %1.020,0 hPa0,2 km/h2,4 km/h158°0,0 mm
21:04-6,8 °C80 %1.020,0 hPa0,0 km/h0,0 km/h158°0,0 mm
20:59-6,7 °C80 %1.020,0 hPa0,0 km/h0,0 km/h158°0,0 mm
20:54-6,5 °C79 %1.020,0 hPa0,0 km/h0,0 km/h158°0,0 mm
20:49-6,4 °C78 %1.020,0 hPa0,0 km/h0,0 km/h158°0,0 mm
20:44-6,2 °C78 %1.020,0 hPa0,0 km/h0,0 km/h158°0,0 mm
20:39-6,0 °C77 %1.020,0 hPa0,0 km/h0,0 km/h158°0,0 mm
20:34-6,1 °C77 %1.020,0 hPa0,2 km/h1,8 km/h158°0,0 mm
20:29-6,2 °C78 %1.021,0 hPa0,0 km/h0,0 km/h158°0,0 mm
20:24-6,1 °C78 %1.021,0 hPa0,0 km/h0,0 km/h158°0,0 mm
20:19-6,1 °C77 %1.021,0 hPa0,1 km/h1,8 km/h158°0,0 mm
20:14-6,4 °C78 %1.021,0 hPa1,0 km/h2,7 km/h126°0,0 mm
20:09-6,4 °C79 %1.021,0 hPa0,1 km/h1,8 km/h90°0,0 mm
20:04-6,2 °C78 %1.021,0 hPa0,0 km/h0,0 km/h90°0,0 mm
19:59-6,0 °C78 %1.020,0 hPa0,0 km/h0,0 km/h90°0,0 mm
19:54-5,7 °C78 %1.020,0 hPa0,0 km/h0,0 km/h90°0,0 mm
19:49-5,6 °C76 %1.020,0 hPa0,0 km/h0,0 km/h90°0,0 mm
19:44-5,7 °C75 %1.020,0 hPa0,0 km/h0,0 km/h90°0,0 mm
19:39-5,6 °C77 %1.020,0 hPa0,0 km/h0,0 km/h90°0,0 mm
19:34-5,4 °C76 %1.020,0 hPa0,0 km/h0,0 km/h90°0,0 mm
19:29-5,5 °C74 %1.021,0 hPa0,0 km/h0,0 km/h90°0,0 mm
19:24-5,9 °C76 %1.021,0 hPa0,1 km/h1,8 km/h90°0,0 mm
19:19-5,9 °C77 %1.021,0 hPa0,0 km/h0,0 km/h90°0,0 mm
19:14-5,8 °C77 %1.021,0 hPa0,0 km/h0,0 km/h90°0,0 mm
19:09-5,9 °C77 %1.021,0 hPa0,0 km/h0,0 km/h90°0,0 mm
19:04-5,9 °C77 %1.021,0 hPa0,0 km/h0,0 km/h90°0,0 mm
18:59-5,9 °C78 %1.021,0 hPa0,0 km/h0,0 km/h90°0,0 mm
18:54-5,8 °C78 %1.021,0 hPa0,0 km/h0,0 km/h90°0,0 mm
18:49-5,6 °C77 %1.021,0 hPa0,0 km/h0,0 km/h90°0,0 mm
18:44-5,5 °C77 %1.021,0 hPa0,0 km/h0,0 km/h90°0,0 mm
18:39-5,3 °C76 %1.021,0 hPa0,0 km/h0,0 km/h90°0,0 mm
18:34-5,2 °C75 %1.021,0 hPa0,0 km/h0,0 km/h90°0,0 mm
18:29-5,0 °C75 %1.021,0 hPa0,0 km/h0,0 km/h90°0,0 mm
18:24-4,9 °C74 %1.021,0 hPa0,0 km/h0,0 km/h90°0,0 mm
18:19-4,6 °C73 %1.021,0 hPa0,0 km/h0,0 km/h90°0,0 mm
18:14-4,3 °C73 %1.021,0 hPa0,0 km/h0,0 km/h90°0,0 mm
18:09-4,1 °C72 %1.021,0 hPa0,0 km/h0,0 km/h90°0,0 mm
18:04-4,2 °C71 %1.021,0 hPa0,0 km/h0,0 km/h90°0,0 mm
17:59-4,5 °C71 %1.020,0 hPa0,0 km/h0,0 km/h90°0,0 mm
17:54-4,4 °C72 %1.020,0 hPa0,0 km/h0,0 km/h90°0,0 mm
17:49-4,0 °C72 %1.020,0 hPa0,0 km/h0,0 km/h90°0,0 mm
17:44-3,6 °C70 %1.021,0 hPa0,0 km/h0,0 km/h90°0,0 mm
17:39-3,3 °C68 %1.021,0 hPa0,0 km/h0,0 km/h90°0,0 mm
17:34-3,1 °C68 %1.021,0 hPa0,2 km/h2,1 km/h90°0,0 mm
17:29-3,0 °C67 %1.021,0 hPa0,0 km/h0,0 km/h90°0,0 mm
17:24-3,0 °C67 %1.021,0 hPa0,4 km/h2,4 km/h90°0,0 mm
17:19-3,1 °C67 %1.021,0 hPa0,3 km/h2,7 km/h90°0,0 mm
17:14-3,2 °C67 %1.021,0 hPa0,3 km/h2,4 km/h90°0,0 mm
17:09-3,2 °C68 %1.021,0 hPa0,0 km/h0,0 km/h90°0,0 mm
17:04-3,0 °C68 %1.021,0 hPa0,1 km/h2,1 km/h90°0,0 mm
16:59-2,7 °C67 %1.021,0 hPa0,0 km/h0,0 km/h90°0,0 mm
16:54-2,5 °C66 %1.021,0 hPa0,0 km/h0,0 km/h90°0,0 mm
16:49-2,3 °C65 %1.021,0 hPa0,3 km/h4,2 km/h90°0,0 mm
16:44-2,2 °C64 %1.021,0 hPa0,7 km/h3,2 km/h104°0,0 mm
16:39-2,2 °C64 %1.021,0 hPa1,6 km/h8,5 km/h99°0,0 mm
16:34-2,3 °C64 %1.021,0 hPa2,4 km/h8,5 km/h87°0,0 mm
16:29-2,3 °C66 %1.021,0 hPa1,9 km/h3,2 km/h68°0,0 mm
16:24-2,3 °C67 %1.021,0 hPa1,9 km/h3,5 km/h68°0,0 mm
16:19-2,2 °C67 %1.021,0 hPa1,2 km/h4,2 km/h68°0,0 mm
16:14-2,2 °C67 %1.021,0 hPa0,7 km/h2,7 km/h68°0,0 mm
16:09-2,2 °C67 %1.021,0 hPa2,0 km/h3,2 km/h68°0,0 mm
16:04-2,3 °C67 %1.021,0 hPa1,5 km/h3,9 km/h68°0,0 mm
15:59-2,3 °C68 %1.020,0 hPa1,0 km/h3,2 km/h68°0,0 mm
15:54-2,1 °C70 %1.020,0 hPa0,3 km/h2,7 km/h68°0,0 mm
15:49-1,9 °C69 %1.020,0 hPa0,0 km/h0,0 km/h68°0,0 mm
15:44-1,8 °C68 %1.021,0 hPa0,4 km/h2,7 km/h68°0,0 mm
15:39-1,6 °C67 %1.021,0 hPa0,1 km/h1,8 km/h68°0,0 mm
15:34-1,4 °C67 %1.021,0 hPa0,6 km/h2,7 km/h68°0,0 mm
15:29-1,1 °C65 %1.021,0 hPa0,5 km/h1,8 km/h68°0,0 mm
15:24-0,8 °C64 %1.021,0 hPa1,1 km/h3,9 km/h68°0,0 mm
15:19-0,3 °C62 %1.021,0 hPa0,6 km/h2,7 km/h68°0,0 mm
15:140,1 °C60 %1.021,0 hPa1,1 km/h3,2 km/h36°0,0 mm
15:090,3 °C57 %1.021,0 hPa0,8 km/h3,9 km/h46°0,0 mm
15:040,2 °C56 %1.021,0 hPa0,6 km/h5,3 km/h146°0,0 mm
14:590,2 °C56 %1.021,0 hPa1,3 km/h6,4 km/h99°0,0 mm
14:540,2 °C56 %1.021,0 hPa2,0 km/h5,6 km/h100°0,0 mm
14:490,2 °C54 %1.021,0 hPa2,6 km/h9,3 km/h62°0,0 mm
14:440,2 °C54 %1.021,0 hPa2,1 km/h5,6 km/h325°0,0 mm
14:390,2 °C55 %1.021,0 hPa2,9 km/h8,5 km/h76°0,0 mm
14:340,2 °C55 %1.021,0 hPa2,5 km/h3,5 km/h18°0,0 mm
14:290,4 °C55 %1.021,0 hPa2,4 km/h5,6 km/h142°0,0 mm
14:240,4 °C55 %1.021,0 hPa2,3 km/h5,0 km/h84°0,0 mm
14:190,3 °C55 %1.021,0 hPa1,5 km/h5,6 km/h80°0,0 mm
14:140,2 °C56 %1.021,0 hPa1,6 km/h5,3 km/h34°0,0 mm
14:090,2 °C57 %1.021,0 hPa2,3 km/h4,7 km/h286°0,0 mm
14:040,2 °C57 %1.021,0 hPa2,2 km/h5,6 km/h76°0,0 mm
13:590,4 °C56 %1.020,0 hPa2,5 km/h6,4 km/h122°0,0 mm
13:540,4 °C57 %1.020,0 hPa2,2 km/h5,3 km/h36°0,0 mm
13:490,5 °C57 %1.020,0 hPa1,8 km/h3,5 km/h251°0,0 mm
13:440,4 °C57 %1.021,0 hPa2,1 km/h3,5 km/h168°0,0 mm
13:390,1 °C57 %1.021,0 hPa2,3 km/h4,7 km/h92°0,0 mm
13:340,0 °C58 %1.021,0 hPa1,2 km/h3,9 km/h105°0,0 mm
13:29-0,1 °C60 %1.021,0 hPa1,9 km/h5,6 km/h79°0,0 mm
13:24-0,3 °C59 %1.021,0 hPa2,7 km/h4,2 km/h31°0,0 mm
13:19-0,5 °C60 %1.021,0 hPa1,8 km/h4,2 km/h317°0,0 mm
13:14-0,6 °C61 %1.021,0 hPa3,8 km/h7,9 km/h92°0,0 mm
13:09-0,7 °C59 %1.021,0 hPa2,5 km/h7,9 km/h105°0,0 mm
13:04-0,8 °C58 %1.021,0 hPa4,4 km/h8,5 km/h106°0,0 mm
12:59-0,9 °C58 %1.021,0 hPa3,6 km/h8,5 km/h103°0,0 mm
12:54-0,9 °C58 %1.021,0 hPa4,7 km/h8,9 km/h113°0,0 mm
12:49-0,9 °C58 %1.021,0 hPa3,2 km/h6,8 km/h111°0,0 mm
12:44-1,0 °C56 %1.021,0 hPa4,1 km/h8,5 km/h95°0,0 mm
12:39-1,0 °C57 %1.021,0 hPa3,0 km/h6,8 km/h104°0,0 mm
12:34-1,1 °C59 %1.021,0 hPa3,2 km/h8,9 km/h89°0,0 mm
12:29-1,1 °C59 %1.021,0 hPa2,6 km/h6,4 km/h80°0,0 mm
12:24-1,3 °C61 %1.021,0 hPa1,7 km/h7,4 km/h147°0,0 mm
12:19-1,4 °C62 %1.021,0 hPa1,7 km/h3,5 km/h41°0,0 mm
12:14-1,6 °C63 %1.021,0 hPa1,8 km/h4,7 km/h65°0,0 mm
12:09-1,8 °C64 %1.021,0 hPa2,2 km/h4,2 km/h97°0,0 mm
12:04-2,0 °C66 %1.021,0 hPa1,5 km/h3,9 km/h309°0,0 mm
11:59-2,3 °C67 %1.021,0 hPa1,2 km/h2,7 km/h45°0,0 mm
11:54-2,6 °C69 %1.021,0 hPa1,6 km/h4,2 km/h97°0,0 mm
11:49-2,8 °C70 %1.021,0 hPa1,7 km/h2,7 km/h112°0,0 mm
11:44-3,1 °C70 %1.021,0 hPa1,2 km/h3,9 km/h112°0,0 mm
11:39-3,3 °C71 %1.021,0 hPa2,1 km/h4,7 km/h96°0,0 mm
11:34-3,5 °C72 %1.021,0 hPa1,9 km/h3,9 km/h87°0,0 mm
11:29-3,7 °C70 %1.021,0 hPa2,2 km/h8,5 km/h111°0,0 mm
11:24-3,9 °C71 %1.021,0 hPa2,2 km/h3,9 km/h87°0,0 mm
11:19-4,1 °C74 %1.021,0 hPa1,6 km/h3,9 km/h76°0,0 mm
11:14-4,3 °C74 %1.021,0 hPa0,8 km/h2,4 km/h68°0,0 mm
11:09-4,4 °C74 %1.021,0 hPa1,0 km/h2,7 km/h68°0,0 mm
11:04-4,7 °C75 %1.021,0 hPa0,8 km/h2,7 km/h68°0,0 mm
10:59-5,0 °C76 %1.021,0 hPa0,3 km/h2,1 km/h68°0,0 mm
10:54-5,2 °C77 %1.021,0 hPa0,2 km/h2,4 km/h68°0,0 mm
10:49-5,4 °C77 %1.021,0 hPa0,5 km/h3,2 km/h68°0,0 mm
10:44-5,4 °C77 %1.021,0 hPa0,8 km/h2,7 km/h68°0,0 mm
10:39-5,3 °C75 %1.021,0 hPa0,4 km/h2,4 km/h68°0,0 mm
10:34-5,1 °C75 %1.021,0 hPa1,0 km/h3,2 km/h87°0,0 mm
10:29-5,2 °C75 %1.021,0 hPa0,0 km/h0,0 km/h112°0,0 mm
10:24-5,5 °C73 %1.021,0 hPa0,0 km/h0,0 km/h112°0,0 mm
10:19-5,7 °C77 %1.021,0 hPa0,0 km/h0,0 km/h112°0,0 mm
10:14-5,8 °C77 %1.021,0 hPa0,0 km/h0,0 km/h112°0,0 mm
10:09-6,3 °C78 %1.021,0 hPa0,0 km/h0,0 km/h112°0,0 mm
10:04-7,1 °C79 %1.021,0 hPa0,0 km/h0,0 km/h112°0,0 mm
09:59-7,6 °C79 %1.021,0 hPa0,0 km/h0,0 km/h112°0,0 mm
09:54-8,0 °C79 %1.021,0 hPa0,7 km/h2,1 km/h112°0,0 mm
09:49-8,3 °C79 %1.021,0 hPa1,7 km/h2,7 km/h112°0,0 mm
09:44-8,6 °C80 %1.021,0 hPa0,4 km/h2,1 km/h112°0,0 mm
09:39-8,7 °C80 %1.021,0 hPa1,2 km/h3,5 km/h112°0,0 mm
09:34-8,8 °C83 %1.021,0 hPa0,0 km/h0,0 km/h112°0,0 mm
09:29-8,9 °C83 %1.021,0 hPa0,0 km/h0,0 km/h112°0,0 mm
09:24-9,3 °C86 %1.021,0 hPa0,0 km/h0,0 km/h112°0,0 mm
09:19-9,8 °C87 %1.021,0 hPa0,0 km/h0,0 km/h112°0,0 mm
09:14-10,2 °C86 %1.021,0 hPa0,0 km/h0,0 km/h112°0,0 mm
09:09-10,5 °C87 %1.021,0 hPa0,0 km/h0,0 km/h112°0,0 mm
09:04-10,7 °C87 %1.021,0 hPa0,0 km/h0,0 km/h112°0,0 mm
08:59-10,8 °C86 %1.021,0 hPa0,0 km/h0,0 km/h112°0,0 mm
08:54-11,0 °C87 %1.021,0 hPa0,0 km/h0,0 km/h112°0,0 mm
08:49-11,4 °C87 %1.021,0 hPa0,0 km/h0,0 km/h112°0,0 mm
08:44-11,8 °C88 %1.021,0 hPa0,0 km/h0,0 km/h112°0,0 mm
08:39-12,0 °C88 %1.021,0 hPa0,0 km/h0,0 km/h112°0,0 mm
08:34-12,0 °C88 %1.021,0 hPa0,0 km/h0,0 km/h112°0,0 mm
08:29-12,1 °C87 %1.021,0 hPa0,0 km/h0,0 km/h112°0,0 mm
08:24-12,1 °C87 %1.021,0 hPa0,0 km/h0,0 km/h112°0,0 mm
08:19-12,1 °C87 %1.021,0 hPa0,0 km/h0,0 km/h112°0,0 mm
08:14-12,0 °C87 %1.021,0 hPa0,0 km/h0,0 km/h112°0,0 mm
08:09-12,1 °C87 %1.021,0 hPa0,0 km/h0,0 km/h112°0,0 mm
08:04-12,1 °C87 %1.021,0 hPa0,0 km/h0,0 km/h112°0,0 mm
07:59-12,1 °C87 %1.021,0 hPa0,0 km/h0,0 km/h112°0,0 mm
07:54-12,1 °C87 %1.021,0 hPa0,0 km/h0,0 km/h112°0,0 mm
07:49-12,1 °C87 %1.021,0 hPa0,0 km/h0,0 km/h112°0,0 mm
07:44-12,3 °C87 %1.021,0 hPa0,0 km/h0,0 km/h112°0,0 mm
07:39-12,4 °C88 %1.021,0 hPa0,0 km/h0,0 km/h112°0,0 mm
07:34-12,5 °C88 %1.021,0 hPa0,0 km/h0,0 km/h112°0,0 mm
07:29-12,6 °C88 %1.021,0 hPa0,0 km/h0,0 km/h112°0,0 mm
07:24-12,7 °C88 %1.021,0 hPa0,0 km/h0,0 km/h112°0,0 mm
07:19-12,7 °C88 %1.021,0 hPa0,0 km/h0,0 km/h112°0,0 mm
07:14-12,7 °C87 %1.021,0 hPa0,0 km/h0,0 km/h112°0,0 mm
07:09-12,6 °C88 %1.021,0 hPa0,0 km/h0,0 km/h112°0,0 mm
07:04-12,6 °C88 %1.021,0 hPa0,0 km/h0,0 km/h112°0,0 mm
06:59-12,5 °C87 %1.021,0 hPa0,0 km/h0,0 km/h112°0,0 mm
06:54-12,4 °C87 %1.021,0 hPa0,0 km/h0,0 km/h112°0,0 mm
06:49-12,4 °C87 %1.021,0 hPa0,0 km/h0,0 km/h112°0,0 mm
06:44-12,2 °C86 %1.021,0 hPa0,0 km/h0,0 km/h112°0,0 mm
06:39-12,0 °C86 %1.021,0 hPa0,0 km/h0,0 km/h112°0,0 mm
06:34-11,8 °C86 %1.021,0 hPa0,0 km/h0,0 km/h112°0,0 mm
06:29-11,8 °C87 %1.021,0 hPa0,0 km/h0,0 km/h112°0,0 mm
06:24-11,7 °C87 %1.021,0 hPa0,0 km/h0,0 km/h112°0,0 mm
06:19-11,5 °C87 %1.021,0 hPa0,0 km/h0,0 km/h112°0,0 mm
06:14-11,4 °C87 %1.021,0 hPa0,0 km/h0,0 km/h112°0,0 mm
06:09-11,4 °C86 %1.021,0 hPa0,0 km/h0,0 km/h112°0,0 mm
06:04-11,3 °C86 %1.021,0 hPa0,0 km/h0,0 km/h112°0,0 mm
05:59-11,6 °C86 %1.021,0 hPa0,0 km/h0,0 km/h112°0,0 mm
05:54-12,0 °C87 %1.021,0 hPa0,0 km/h0,0 km/h112°0,0 mm
05:49-12,1 °C87 %1.021,0 hPa0,0 km/h0,0 km/h90°0,0 mm
05:44-12,0 °C87 %1.021,0 hPa0,0 km/h0,0 km/h90°0,0 mm
05:39-12,1 °C87 %1.021,0 hPa0,0 km/h0,0 km/h90°0,0 mm
05:34-12,2 °C87 %1.021,0 hPa0,0 km/h0,0 km/h90°0,0 mm
05:29-12,2 °C88 %1.021,0 hPa0,0 km/h0,0 km/h90°0,0 mm
05:24-12,3 °C88 %1.021,0 hPa0,0 km/h0,0 km/h90°0,0 mm
05:19-12,6 °C89 %1.021,0 hPa0,0 km/h0,0 km/h90°0,0 mm
05:14-12,9 °C89 %1.021,0 hPa0,0 km/h0,0 km/h90°0,0 mm
05:09-13,1 °C89 %1.021,0 hPa0,0 km/h0,0 km/h90°0,0 mm
05:04-13,3 °C89 %1.021,0 hPa0,0 km/h0,0 km/h90°0,0 mm
04:59-13,2 °C88 %1.021,0 hPa0,0 km/h0,0 km/h90°0,0 mm
04:54-13,1 °C87 %1.021,0 hPa0,0 km/h0,0 km/h90°0,0 mm
04:49-13,0 °C88 %1.021,0 hPa0,0 km/h0,0 km/h90°0,0 mm
04:44-12,9 °C87 %1.021,0 hPa0,0 km/h0,0 km/h90°0,0 mm
04:39-12,7 °C87 %1.021,0 hPa0,0 km/h0,0 km/h90°0,0 mm
04:34-12,8 °C88 %1.021,0 hPa0,0 km/h0,0 km/h90°0,0 mm
04:29-13,0 °C88 %1.022,0 hPa0,0 km/h0,0 km/h90°0,0 mm
04:24-13,0 °C88 %1.022,0 hPa0,0 km/h0,0 km/h90°0,0 mm
04:19-13,0 °C89 %1.022,0 hPa0,0 km/h0,0 km/h90°0,0 mm
04:14-13,2 °C89 %1.022,0 hPa0,0 km/h0,0 km/h90°0,0 mm
04:09-13,4 °C89 %1.022,0 hPa0,0 km/h0,0 km/h90°0,0 mm
04:04-13,5 °C89 %1.022,0 hPa0,0 km/h0,0 km/h90°0,0 mm
03:59-13,5 °C89 %1.021,0 hPa0,0 km/h0,0 km/h90°0,0 mm
03:54-13,5 °C89 %1.021,0 hPa0,0 km/h0,0 km/h90°0,0 mm
03:49-13,5 °C88 %1.021,0 hPa0,0 km/h0,0 km/h90°0,0 mm
03:44-13,5 °C89 %1.022,0 hPa0,0 km/h0,0 km/h90°0,0 mm
03:39-13,6 °C89 %1.022,0 hPa0,0 km/h0,0 km/h90°0,0 mm
03:34-13,6 °C89 %1.022,0 hPa0,0 km/h0,0 km/h90°0,0 mm
03:29-13,5 °C89 %1.021,0 hPa0,0 km/h0,0 km/h90°0,0 mm
03:24-13,5 °C89 %1.021,0 hPa0,0 km/h0,0 km/h90°0,0 mm
03:19-13,4 °C88 %1.021,0 hPa0,0 km/h0,0 km/h90°0,0 mm
03:14-13,2 °C89 %1.022,0 hPa0,0 km/h0,0 km/h90°0,0 mm
03:09-13,3 °C89 %1.022,0 hPa0,0 km/h0,0 km/h90°0,0 mm
03:04-13,5 °C90 %1.022,0 hPa0,0 km/h0,0 km/h90°0,0 mm
02:59-13,5 °C89 %1.022,0 hPa0,0 km/h0,0 km/h90°0,0 mm
02:54-13,4 °C89 %1.022,0 hPa0,0 km/h0,0 km/h90°0,0 mm
02:49-13,3 °C89 %1.022,0 hPa0,0 km/h0,0 km/h90°0,0 mm
02:44-13,3 °C89 %1.022,0 hPa0,0 km/h0,0 km/h90°0,0 mm
02:39-13,3 °C89 %1.022,0 hPa0,0 km/h0,0 km/h90°0,0 mm
02:34-13,2 °C88 %1.022,0 hPa0,0 km/h0,0 km/h90°0,0 mm
02:29-13,0 °C88 %1.022,0 hPa0,0 km/h0,0 km/h90°0,0 mm
02:24-12,9 °C89 %1.022,0 hPa0,0 km/h0,0 km/h90°0,0 mm
02:19-12,8 °C89 %1.022,0 hPa0,0 km/h0,0 km/h90°0,0 mm
02:14-12,6 °C89 %1.022,0 hPa0,0 km/h0,0 km/h90°0,0 mm
02:09-12,6 °C90 %1.022,0 hPa0,0 km/h0,0 km/h90°0,0 mm
02:04-12,7 °C91 %1.022,0 hPa0,0 km/h0,0 km/h90°0,0 mm
01:59-12,8 °C91 %1.022,0 hPa0,0 km/h0,0 km/h90°0,0 mm
01:54-12,8 °C90 %1.022,0 hPa0,0 km/h0,0 km/h90°0,0 mm
01:49-12,8 °C90 %1.022,0 hPa0,0 km/h0,0 km/h90°0,0 mm
01:44-12,6 °C90 %1.022,0 hPa0,0 km/h0,0 km/h90°0,0 mm
01:39-12,8 °C91 %1.022,0 hPa0,0 km/h0,0 km/h90°0,0 mm
01:34-13,0 °C91 %1.022,0 hPa0,0 km/h0,0 km/h90°0,0 mm
01:29-13,0 °C90 %1.022,0 hPa0,0 km/h0,0 km/h90°0,0 mm
01:24-12,9 °C90 %1.022,0 hPa0,0 km/h0,0 km/h90°0,0 mm
01:19-12,9 °C90 %1.022,0 hPa0,0 km/h0,0 km/h90°0,0 mm
01:14-12,8 °C90 %1.022,0 hPa0,0 km/h0,0 km/h90°0,0 mm
01:09-12,7 °C90 %1.022,0 hPa0,0 km/h0,0 km/h90°0,0 mm
01:04-12,7 °C90 %1.022,0 hPa0,0 km/h0,0 km/h90°0,0 mm
00:59-12,8 °C91 %1.022,0 hPa0,0 km/h0,0 km/h90°0,0 mm
00:54-12,9 °C90 %1.022,0 hPa0,0 km/h0,0 km/h90°0,0 mm
00:49-12,9 °C90 %1.022,0 hPa0,0 km/h0,0 km/h90°0,0 mm
00:44-12,8 °C89 %1.022,0 hPa0,0 km/h0,0 km/h90°0,0 mm
00:39-12,7 °C89 %1.022,0 hPa0,0 km/h0,0 km/h90°0,0 mm
00:34-12,5 °C89 %1.022,0 hPa0,0 km/h0,0 km/h90°0,0 mm
00:29-12,4 °C89 %1.022,0 hPa0,0 km/h0,0 km/h90°0,0 mm
00:24-12,2 °C89 %1.022,0 hPa0,0 km/h0,0 km/h90°0,0 mm
00:19-12,2 °C89 %1.022,0 hPa0,0 km/h0,0 km/h90°0,0 mm
00:14-12,2 °C90 %1.022,0 hPa0,0 km/h0,0 km/h90°0,0 mm
00:09-12,4 °C90 %1.022,0 hPa0,0 km/h0,0 km/h90°0,0 mm
00:04-12,6 °C90 %1.022,0 hPa0,0 km/h0,0 km/h90°0,0 mm